PWSweather.com
Personal Weather Stations
Station Observations
WISCHPK61
Green Bay Schmitt Park, Green Bay, WI 54311

Green Bay Schmitt ParkGreen Bay, WI 54311

Lat: 44.514277, Lon: -87.935067

Elevation: 735

Station Type: Acu Rite Pro Weather Center model 02032C

http://greenbayweathercam.com

High Low Average
Temperature 34.0°F1.1°C -3.8°F-19.9°C 12.6°F-10.8°C
Dew Point 33.8°F1.0°C -10.5°F-23.6°C 10.7°F-11.8°C
Winds 1.2 mph 1.9 kmh Calm Calm Calm SWCalm SW
Wind Gusts 1.2 mph1.9 kmh -- --
Humidity 99% 66% 93%
Pressure 29.50 in999.0 mb 29.38 in994.9 mb -
Precipitation 0.00 in0.0 mm - -
Hour Temp Dew Point Humidity Winds Wind Gusts Pressure Precip Precip Rate Daily Precip Total
12:00 AM 5.4°F-14.8°C 0.6°F-17.4°C 80% Calm Calm -- 29.48 in998.3 mb - 0.00 in0.0 mm 0.00 in0.0 mm
01:00 AM 2.7°F-16.3°C -6.1°F-21.2°C 66% Calm Calm -- 29.48 in998.3 mb - 0.00 in0.0 mm 0.00 in0.0 mm
02:00 AM 0.5°F-17.5°C 0.3°F-17.6°C 99% Calm Calm -- 29.49 in998.6 mb - 0.00 in0.0 mm 0.00 in0.0 mm
03:00 AM -1.1°F-18.4°C -1.3°F-18.5°C 99% Calm Calm -- 29.50 in999.0 mb - 0.00 in0.0 mm 0.00 in0.0 mm
04:00 AM -2.2°F-19.0°C -5.8°F-21.0°C 84% Calm Calm -- 29.49 in998.6 mb - 0.00 in0.0 mm 0.00 in0.0 mm
05:00 AM -3.1°F-19.5°C -10.5°F-23.6°C 70% Calm Calm -- 29.48 in998.3 mb - 0.00 in0.0 mm 0.00 in0.0 mm
06:00 AM -3.5°F-19.7°C -3.7°F-19.8°C 99% Calm Calm -- 29.49 in998.6 mb - 0.00 in0.0 mm 0.00 in0.0 mm
07:00 AM -3.8°F-19.9°C -4.0°F-20.0°C 99% Calm Calm -- 29.49 in998.6 mb - 0.00 in0.0 mm 0.00 in0.0 mm
08:00 AM -2.4°F-19.1°C -2.6°F-19.2°C 99% Calm Calm -- 29.49 in998.6 mb - 0.00 in0.0 mm 0.00 in0.0 mm
09:00 AM 3.9°F-15.6°C 3.7°F-15.7°C 99% Calm Calm -- 29.50 in999.0 mb - 0.00 in0.0 mm 0.00 in0.0 mm
10:00 AM 11.3°F-11.5°C 11.1°F-11.6°C 99% Calm Calm -- 29.50 in999.0 mb - 0.00 in0.0 mm 0.00 in0.0 mm
11:00 AM 17.8°F-7.9°C 8.4°F-13.1°C 66% 1.2 mph W1.9 kmh W 1.2 mph1.9 kmh 29.50 in999.0 mb - 0.00 in0.0 mm 0.00 in0.0 mm
12:00 PM 24.7°F-4.1°C 17.0°F-8.3°C 72% Calm Calm -- 29.48 in998.3 mb - 0.00 in0.0 mm 0.00 in0.0 mm
01:00 PM 29.8°F-1.2°C 29.6°F-1.3°C 99% Calm Calm -- 29.47 in998.0 mb - 0.00 in0.0 mm 0.00 in0.0 mm
02:00 PM 34.0°F1.1°C 33.8°F1.0°C 99% Calm Calm 1.2 mph1.9 kmh 29.45 in997.3 mb - 0.00 in0.0 mm 0.00 in0.0 mm
03:00 PM 31.2°F-0.4°C 30.9°F-0.6°C 99% 1.2 mph W1.9 kmh W 1.2 mph1.9 kmh 29.41 in995.9 mb - 0.00 in0.0 mm 0.00 in0.0 mm
04:00 PM 24.7°F-4.1°C 20.5°F-6.4°C 84% Calm Calm -- 29.40 in995.6 mb - 0.00 in0.0 mm 0.00 in0.0 mm
05:00 PM 22.6°F-5.2°C 22.4°F-5.3°C 99% Calm Calm -- 29.39 in995.3 mb - 0.00 in0.0 mm 0.00 in0.0 mm
06:00 PM 21.2°F-6.0°C 21.0°F-6.1°C 99% Calm Calm -- 29.38 in994.9 mb - 0.00 in0.0 mm 0.00 in0.0 mm
07:00 PM 18.9°F-7.3°C 18.7°F-7.4°C 99% Calm Calm 1.2 mph1.9 kmh 29.39 in995.3 mb - 0.00 in0.0 mm 0.00 in0.0 mm
08:00 PM 17.6°F-8.0°C 17.4°F-8.1°C 99% Calm Calm -- 29.41 in995.9 mb - 0.00 in0.0 mm 0.00 in0.0 mm
09:00 PM 16.3°F-8.7°C 16.1°F-8.8°C 99% Calm Calm -- 29.43 in996.6 mb - 0.00 in0.0 mm 0.00 in0.0 mm
10:00 PM 15.3°F-9.3°C 15.1°F-9.4°C 99% Calm Calm -- 29.46 in997.6 mb - 0.00 in0.0 mm 0.00 in0.0 mm
11:00 PM 14.9°F-9.5°C 14.7°F-9.6°C 99% Calm Calm -- 29.47 in998.0 mb - 0.00 in0.0 mm 0.00 in0.0 mm